Latest Weather Observations for Longreach

IDQ60801

Issued at 11:32 pm EST Wednesday 27 July 2016 (issued every 30 minutes, with the page automatically refreshed every 10 minutes)

About weather observations | Map of weather stations | Latest weather observations for QLD | Other Formats
Station Details ID: 036031 Name: LONGREACH AERO Lat: -23.44 Lon: 144.28 Height: 192.2 m
Data from the previous 72 hours. | See also: Recent months at Longreach
Date/Time
EST
Temp
°C
App
Temp
°C
Dew
Point
°C
Rel
Hum
%
Delta-T
°C
Wind Press
QNH
hPa
Press
MSL
hPa
Rain since
9am
mm
Dir  Spd
km/h
Gust
km/h
Spd
kts
Gust
kts
27/11:30pm 12.1 8.4 4.2 58 3.6 SSW 13 17 7 9 1024.1 1023.9 0.2
27/11:00pm 12.8 9.0 4.0 55 4.0 SSW 13 15 7 8 1024.2 1024.0 0.2
27/10:30pm 12.6 9.0 4.8 59 3.6 SSW 13 15 7 8 1024.2 1024.0 0.2
27/10:00pm 13.4 9.3 4.5 55 4.1 S 15 17 8 9 1024.1 1023.9 0.2
27/09:30pm 14.2 10.0 4.0 50 4.7 SSW 15 17 8 9 1024.0 1023.8 0.2
27/09:00pm 14.6 10.8 4.0 49 4.9 SSW 13 15 7 8 1024.0 1023.8 0.2
27/08:30pm 14.6 10.9 4.5 50 4.7 S 13 15 7 8 1023.8 1023.6 0.2
27/08:00pm 15.1 11.1 4.7 50 4.9 SSW 15 17 8 9 1023.4 1023.2 0.2
27/07:30pm 15.2 11.7 5.3 51 4.7 SSW 13 17 7 9 1023.1 1022.9 0.2
27/07:00pm 15.9 12.3 5.2 49 5.1 SSW 13 17 7 9 1022.6 1022.4 0.2
27/06:30pm 16.6 13.2 5.7 48 5.3 SSW 13 15 7 8 1022.1 1021.9 0.2
27/06:00pm 18.1 14.8 4.8 41 6.4 SSW 11 13 6 7 1021.8 1021.6 0.2
27/05:30pm 19.5 16.0 3.5 34 7.6 S 11 13 6 7 1021.7 1021.5 0.2
27/05:00pm 20.4 15.3 0.8 27 8.9 S 17 20 9 11 1021.3 1021.1 0.2
27/04:30pm 20.9 16.8 2.0 28 8.8 S 13 19 7 10 1021.1 1020.9 0.2
27/04:00pm 21.0 16.8 1.5 27 9.0 S 13 17 7 9 1020.8 1020.6 0.2
27/03:30pm 21.0 16.7 1.2 27 9.1 SSE 13 17 7 9 1020.7 1020.5 0.2
27/03:00pm 20.8 16.1 1.2 27 9.0 SSE 15 22 8 12 1020.9 1020.7 0.2
27/02:30pm 20.7 15.2 1.7 28 8.8 S 20 30 11 16 1021.3 1021.1 0.2
27/02:00pm 20.5 15.0 1.6 28 8.7 S 20 28 11 15 1021.5 1021.3 0.2
27/01:30pm 20.3 14.9 2.6 31 8.3 SSE 20 30 11 16 1021.9 1021.7 0.2
27/01:00pm 19.9 14.2 2.9 32 8.0 S 22 33 12 18 1022.4 1022.2 0.2
27/12:30pm 20.0 14.1 4.0 34 7.7 SSE 24 35 13 19 1022.8 1022.6 0.2
27/12:00pm 18.9 12.0 2.8 34 7.5 SSE 28 35 15 19 1023.3 1023.1 0.2
27/11:30am 18.1 11.2 2.7 35 7.1 S 28 37 15 20 1023.7 1023.5 0.2
27/11:00am 17.5 9.4 3.0 38 6.7 S 35 43 19 23 1024.0 1023.8 0.2
27/10:30am 16.5 10.4 4.7 45 5.6 SSE 26 35 14 19 1024.1 1023.9 0.0
27/10:00am 14.8 9.2 5.3 53 4.5 S 24 33 13 18 1024.4 1024.3 0.0
27/09:30am 14.7 9.5 5.5 54 4.4 S 22 32 12 17 1024.2 1024.0 0.0
27/09:00am 14.0 9.7 6.8 62 3.5 S 19 26 10 14 1024.1 1023.9 0.2
27/08:30am 12.3 9.6 7.4 72 2.4 SSW 11 15 6 8 1023.6 1023.4 0.2
27/08:00am 11.7 9.5 7.8 77 1.9 SSW 9 11 5 6 1023.3 1023.1 0.2
27/07:30am 11.5 9.6 7.6 77 1.9 S 7 9 4 5 1022.7 1022.5 0.2
27/07:00am 11.7 9.5 7.8 77 1.9 SW 9 13 5 7 1022.7 1022.5 0.2
27/06:30am 12.0 10.1 7.5 74 2.2 SSW 7 9 4 5 1022.1 1021.9 0.2
27/06:00am 12.3 9.9 6.9 69 2.6 S 9 11 5 6 1021.5 1021.3 0.2
27/05:30am 12.4 9.2 7.0 69 2.6 S 13 15 7 8 1021.1 1020.9 0.2
27/05:00am 12.6 9.1 7.3 70 2.6 S 15 17 8 9 1021.0 1020.8 0.2
27/04:30am 12.5 8.7 7.6 72 2.4 S 17 20 9 11 1020.3 1020.2 0.2
27/04:00am 12.4 8.7 7.9 74 2.2 S 17 24 9 13 1020.2 1020.1 0.2
27/03:30am 13.3 9.0 6.9 65 3.1 SSW 19 26 10 14 1021.0 1020.8 0.0
27/03:00am 13.3 9.1 7.6 68 2.8 SSW 19 26 10 14 1020.4 1020.3 0.0
27/02:30am 13.4 10.0 9.1 75 2.2 SSW 17 20 9 11 1020.4 1020.3 0.0
27/02:00am 13.5 10.5 9.2 75 2.2 SSW 15 19 8 10 1020.1 1020.0 0.0
27/01:30am 13.6 10.6 9.3 75 2.2 SSW 15 20 8 11 1020.3 1020.2 0.0
27/01:00am 13.5 11.5 10.0 79 1.8 SW 11 15 6 8 1020.6 1020.4 0.0
27/12:30am 13.5 11.1 10.0 79 1.8 SW 13 17 7 9 1020.0 1019.9 0.0
27/12:00am 13.8 11.4 10.0 78 2.0 SW 13 19 7 10 1020.1 1020.0 0.0
 
Date/Time
EST
Temp
°C
App
Temp
°C
Dew
Point
°C
Rel
Hum
%
Delta-T
°C
Wind Press
QNH
hPa
Press
MSL
hPa
Rain since
9am
mm
Dir  Spd
km/h
Gust
km/h
Spd
kts
Gust
kts
26/11:30pm 14.2 11.7 9.6 74 2.4 SSW 13 19 7 10 1020.6 1020.4 0.0
26/11:00pm 14.6 11.8 8.7 67 3.0 SSW 13 17 7 9 1020.8 1020.6 0.0
26/10:30pm 15.0 12.9 8.1 63 3.5 SSW 9 11 5 6 1020.8 1020.6 0.0
26/10:00pm 15.2 11.9 8.1 62 3.6 SW 15 17 8 9 1021.0 1020.8 0.0
26/09:30pm 15.4 12.0 7.6 59 3.9 SSW 15 17 8 9 1020.8 1020.6 0.0
26/09:00pm 15.8 12.3 7.2 56 4.3 SSW 15 20 8 11 1020.8 1020.6 0.0
26/08:30pm 15.9 12.4 7.0 55 4.4 SSW 15 17 8 9 1020.4 1020.3 0.0
26/08:00pm 16.2 12.7 7.2 55 4.5 SSW 15 19 8 10 1020.1 1020.0 0.0
26/07:30pm 16.5 13.1 7.6 55 4.5 SSW 15 19 8 10 1019.7 1019.5 0.0
26/07:00pm 17.3 13.9 7.7 53 4.9 SSW 15 22 8 12 1018.9 1018.7 0.0
26/06:30pm 17.7 15.7 8.7 55 4.7 S 9 11 5 6 1018.4 1018.2 0.0
26/06:00pm 17.5 16.2 10.0 61 4.0 SSE 7 7 4 4 1018.0 1017.8 0.0
26/05:30pm 18.2 16.2 8.6 53 5.0 SSE 9 9 5 5 1018.0 1017.8 0.0
26/05:00pm 18.9 15.6 6.6 44 6.2 SSE 13 15 7 8 1017.7 1017.5 0.0
26/04:30pm 19.2 15.5 6.5 43 6.4 S 15 19 8 10 1017.7 1017.5 0.0
26/04:00pm 19.3 16.2 7.4 46 6.1 SSE 13 17 7 9 1017.6 1017.4 0.0
26/03:30pm 19.2 15.4 6.0 42 6.6 S 15 19 8 10 1017.8 1017.6 0.0
26/03:00pm 19.3 16.7 6.1 42 6.6 SE 9 19 5 10 1017.7 1017.5 0.0
26/02:30pm 19.0 - 5.9 42 6.5 - - - - - 1017.8 1017.6 0.0
26/02:00pm 18.9 16.3 6.3 43 6.3 SSE 9 19 5 10 1018.1 1017.9 0.0
26/01:30pm 18.8 - 6.2 43 6.3 - - - - - 1018.1 1017.9 0.0
26/01:00pm 18.6 16.1 6.4 45 6.1 SE 9 19 5 10 1018.5 1018.3 0.0
26/12:30pm 18.7 - 6.8 46 6.0 - - - - - 1019.2 1019.0 0.0
26/12:00pm 17.6 15.0 6.3 47 5.6 SE 9 19 5 10 1019.6 1019.4 0.0
26/11:30am 17.7 - 6.4 47 5.6 - - - - - 1020.0 1019.9 0.0
26/11:00am 17.2 14.8 7.0 51 5.1 SSE 9 19 5 10 1020.3 1020.2 0.0
26/10:30am 16.5 - 7.3 54 4.6 - - - - - 1020.6 1020.4 0.0
26/10:00am 15.0 12.7 7.6 61 3.7 SE 9 19 5 10 1021.0 1020.8 0.0
26/09:30am 14.3 - 7.2 62 3.5 - - - - - 1020.6 1020.4 0.0
26/09:00am 13.5 11.2 7.4 66 3.0 SE 9 13 5 7 1020.4 1020.3 0.0
26/08:30am 12.1 - 8.1 76 2.0 - - - - - 1020.3 1020.2 0.0
26/08:00am 11.6 10.0 7.9 78 1.8 SE 6 9 3 5 1020.2 1020.1 0.0
26/07:30am 10.8 - 8.2 84 1.3 - - - - - 1020.0 1019.9 0.0
26/07:00am 10.7 - 7.6 81 1.5 - - - - - 1020.0 1019.9 0.0
26/06:30am 9.9 - 7.6 85 1.1 - - - - - 1019.4 1019.2 0.0
26/06:00am 10.0 - 7.3 83 1.3 - - - - - 1019.1 1018.9 0.0
26/05:30am 10.2 - 7.3 82 1.4 - - - - - 1018.9 1018.7 0.0
26/05:00am 10.4 - 7.1 80 1.6 - - - - - 1018.7 1018.5 0.0
26/04:30am 10.2 - 7.1 81 1.5 - - - - - 1018.6 1018.4 0.0
26/04:00am 9.9 - 7.2 83 1.3 - - - - - 1018.8 1018.6 0.0
26/03:30am 9.8 - 7.1 83 1.3 - - - - - 1018.7 1018.5 0.0
26/03:00am 9.7 - 6.7 81 1.4 - - - - - 1019.0 1018.8 0.0
26/02:30am 9.3 - 6.5 83 1.3 - - - - - 1019.2 1019.0 0.0
26/02:00am 9.2 - 6.2 81 1.4 - - - - - 1019.2 1019.0 0.0
26/01:30am 10.1 - 5.5 73 2.1 - - - - - 1019.6 1019.4 0.0
26/01:00am 10.0 - 5.9 75 1.9 - - - - - 1019.5 1019.3 0.0
26/12:30am 11.3 - 5.0 65 2.9 - - - - - 1019.5 1019.3 0.0
26/12:00am 12.1 - 4.7 60 3.4 - - - - - 1019.5 1019.3 0.0
 
Date/Time
EST
Temp
°C
App
Temp
°C
Dew
Point
°C
Rel
Hum
%
Delta-T
°C
Wind Press
QNH
hPa
Press
MSL
hPa
Rain since
9am
mm
Dir  Spd
km/h
Gust
km/h
Spd
kts
Gust
kts
25/11:30pm 12.3 - 4.7 60 3.5 - - - - - 1019.8 1019.7 0.0
25/11:00pm 11.9 - 5.0 62 3.2 - - - - - 1019.9 1019.8 0.0
25/10:30pm 11.9 - 5.2 63 3.1 - - - - - 1020.0 1019.9 0.0
25/10:00pm 12.1 - 5.2 62 3.2 - - - - - 1020.0 1019.9 0.0
25/09:30pm 12.3 - 6.2 66 2.9 - - - - - 1020.0 1019.9 0.0
25/09:00pm 12.9 - 6.4 64 3.1 - - - - - 1020.0 1019.9 0.0
25/08:30pm 13.1 - 7.4 68 2.8 - - - - - 1020.0 1019.9 0.0
25/08:00pm 14.1 - 6.7 61 3.6 - - - - - 1019.9 1019.8 0.0
25/07:30pm 15.0 - 6.1 55 4.3 - - - - - 1019.6 1019.4 0.0
25/07:00pm 15.5 - 6.5 55 4.4 - - - - - 1019.3 1019.1 0.0
25/06:30pm 16.5 - 5.0 46 5.5 - - - - - 1019.1 1018.9 0.0
25/06:00pm 17.2 - 5.2 45 5.8 - - - - - 1018.9 1018.7 0.0
25/05:30pm 18.6 - 4.5 39 6.8 - - - - - 1018.5 1018.3 0.0
25/05:00pm 19.4 16.2 3.1 34 7.7 SSE 9 19 5 10 1018.4 1018.2 0.0
25/04:30pm 19.8 - 2.8 32 8.0 - - - - - 1018.5 1018.3 0.0
25/04:00pm 19.8 14.5 1.8 30 8.3 SSE 19 28 10 15 1018.4 1018.2 0.0
25/03:30pm 20.1 - 3.3 33 8.0 - - - - - 1018.4 1018.2 0.0
25/03:00pm 19.8 17.1 2.4 31 8.1 S 6 9 3 5 1018.6 1018.4 0.0
25/02:30pm 19.4 - 2.4 32 7.9 - - - - - 1018.8 1018.6 0.0
25/02:00pm 19.2 16.1 3.6 35 7.4 S 9 13 5 7 1019.1 1018.9 0.0
25/01:30pm 19.1 - 3.8 36 7.3 - - - - - 1019.6 1019.4 0.0
25/01:00pm 18.7 13.7 3.7 37 7.1 SE 19 28 10 15 1020.0 1019.9 0.0
25/12:30pm 18.5 - 4.3 39 6.8 - - - - - 1020.7 1020.5 0.0
25/12:00pm 18.2 13.3 4.1 39 6.7 SSE 19 28 10 15 1021.1 1020.9 0.0
25/11:30am 18.1 - 4.8 41 6.4 - - - - - 1021.5 1021.3 0.0
25/11:00am 17.5 - 4.8 43 6.1 - - - - - 1021.7 1021.5 0.0
25/10:30am 16.8 - 4.0 42 6.0 - - - - - 1022.0 1021.8 0.0
25/10:00am 16.4 12.0 4.9 46 5.5 SSE 17 22 9 12 1022.1 1021.9 0.0
25/09:30am 15.7 10.8 5.0 49 5.1 SSE 20 24 11 13 1022.0 1021.8 0.0
25/09:00am 14.7 11.6 7.2 61 3.7 S 13 17 7 9 1021.8 1021.6 0.0
25/08:30am 13.3 11.3 6.2 62 3.4 SSE 6 9 3 5 1021.4 1021.2 0.0
25/08:00am 12.3 10.8 6.7 68 2.7 SSE 4 6 2 3 1021.3 1021.1 0.0
25/07:30am 11.1 9.7 7.2 77 1.9 SSE 4 4 2 2 1021.1 1020.9 0.0
25/07:00am 10.1 8.1 7.2 82 1.4 SSE 7 9 4 5 1020.8 1020.6 0.0
25/06:30am 10.7 7.9 6.9 77 1.8 SSE 11 13 6 7 1020.3 1020.2 0.0
25/06:00am 11.9 8.2 6.2 68 2.7 SSE 15 17 8 9 1020.0 1019.9 0.0
25/05:30am 12.2 8.0 5.8 65 3.0 S 17 20 9 11 1019.6 1019.4 0.0
25/05:00am 11.9 8.6 6.2 68 2.7 S 13 19 7 10 1019.3 1019.1 0.0
25/04:30am 11.7 9.2 6.5 70 2.5 S 9 15 5 8 1019.2 1019.0 0.0
25/04:00am 12.3 9.0 6.2 66 2.9 S 13 17 7 9 1019.3 1019.1 0.0
25/03:30am 13.0 9.2 5.6 61 3.5 S 15 19 8 10 1019.4 1019.2 0.0
25/03:00am 13.4 9.1 5.1 57 3.9 S 17 22 9 12 1019.3 1019.1 0.0
25/02:30am 13.5 8.8 5.2 57 3.9 S 19 22 10 12 1019.2 1019.0 0.0
25/02:00am 13.9 9.2 5.2 55 4.1 S 19 24 10 13 1019.3 1019.1 0.0
25/01:30am 13.6 9.8 5.8 59 3.7 S 15 19 8 10 1019.4 1019.2 0.0
25/01:00am 13.8 10.4 5.8 58 3.8 S 13 17 7 9 1019.6 1019.4 0.0
25/12:30am 14.1 11.0 5.7 57 4.0 SSW 11 15 6 8 1019.9 1019.8 0.0
25/12:00am 13.8 10.9 6.6 62 3.5 SSW 11 13 6 7 1020.0 1019.9 0.0

Other Formats:

Comma delimited format used in spreadsheet applications
http://www.bom.gov.au/fwo/IDQ60801/IDQ60801.94346.axf

JavaScript Object Notation format (JSON) in row-major order
http://www.bom.gov.au/fwo/IDQ60801/IDQ60801.94346.json